Carbondale, Ohio
Current Conditions -  °F | °C
As of 9:35 AM on Wednesday 22 Oct 2014 (Local Time) from KUNI Reporting Station
Overcast Overcast  
Wind Chill: 45°   Ceiling: 1400
Heat Index: 47°   Visibility: 10mi
Dew Point: 42°   Wind: 5mph
Humidity: 81%   Direction: 330°NNW
Pressure: 30.21"   Gusts: NA
Location:  39.38°N, 82.27°W
Report Text: KUNI 221335Z AUTO 33004KT 10SM OVC014 08/05 A3021 RMK AO2 T00840054
Loading
Personal Weather Stations






























Interactive Weather Map
Tropical Storm Tracking
New forecast layout! Learn more

10-Day Weather Forecast

Advertisements
Track Severe Weather on mobile